Report METAR

 

LIML - Milano/Linate, Italy
Distance from station: NO 27km
Dati ricevuti: 18/01/2019 05:20
Mist, Nubi sparse
Mist, Nubi sparse
 Vento da OSO
Vento: OSO 7 km/h
Temperatura: 3°C
Temperatura Vento: 1°C
P.to Rugiada: 3°C
Umidità: 100%
Barometro: 1009 hPa
Summary: Mist
Nuvole: Few Clouds
Visibility: 2 km
Cloud details: Few Clouds 122 m
2019/01/18 04:20 LIML 180420Z AUTO 25004KT 210V270 2100 BR FEW004/// 03/03 Q1009
LIME - Bergamo/Orio Ser, Italy
Distance from station: NNE 43km
Dati ricevuti: 18/01/2019 05:20

 Vento da Variabile
Vento: Variabile 2 km/h
Visibility: 2 km
2019/01/18 04:20 LIME 180420Z VRB01KT 2000 0600 BCFG FEW003 BKN006 04/04 Q1008 NOSIG
 
LIMS - Piacenza, it-Afb, Italy
Distance from station: SSE 45km
Dati ricevuti: 17/01/2019 18:55
DATI Obsoleti
Pioviggine, Nebbia, Parz. nuvoloso
Pioviggine, Nebbia, Parz. nuvoloso
 Vento da NE
Vento: NE 4 km/h
Temperatura: 5°C
P.to Rugiada: 5°C
Umidità: 100%
Barometro: 1010 hPa
Summary: Pioviggine, Nebbia
Nuvole: Parz. nuvoloso
Visibility: 1 km
Cloud details: Molto nuvoloso 91 m
Parz. nuvoloso 122 m
2019/01/17 17:55 LIMS 171755Z 05002KT 0700 R30/1000 R12/1100 -RA FG BKN003 SCT004 05/05 Q1010
LIPO - Brescia/Montichi, Italy
Distance from station: ENE 65km
Dati ricevuti: 18/01/2019 04:50
Mist, Nuvoloso
Mist, Nuvoloso
 Vento da O
Vento: O 9 km/h
Temperatura: 5°C
Temperatura Vento: 3°C
P.to Rugiada: 5°C
Umidità: 100%
Barometro: 1009 hPa
Summary: Mist
Nuvole: Molto nuvoloso
Visibility: 2 km
Cloud details: Molto nuvoloso 305 m
2019/01/18 03:50 LIPO 180350Z 27005KT 1500 BR BKN010 05/05 Q1009